Time;durP1;ratioP1;P1;durP2;ratioP2;P2;SDS_P1;SDS_P2;PMS_P1;PMS_P2;Temp;Humidity;BMP_temperature;BMP_pressure;BME280_temperature;BME280_humidity;BME280_pressure;Samples;Min_cycle;Max_cycle;Signal;HPM_P1;HPM_P2
2023/04/06 00:00:52;;;;;;;;;;;;;;;;;;5056748;28;19956;-69
2023/04/06 00:03:17;;;;;;;;;;;;;;;;;;5057269;28;19957;-69
2023/04/06 00:05:43;;;;;;;;;;;;;;;;;;5056942;28;19956;-70
2023/04/06 00:08:09;;;;;;;;;;;;;;;;;;5056884;28;20412;-69
2023/04/06 00:10:35;;;;;;;;;;;;;;;;;;5056569;28;19955;-70
2023/04/06 00:13:01;;;;;;;;;;;;;;;;;;5056437;28;20024;-68
2023/04/06 00:15:27;;;;;;;;;;;;;;;;;;5056486;28;19958;-71
2023/04/06 00:17:53;;;;;;;;;;;;;;;;;;5056710;28;19954;-70
2023/04/06 00:20:19;;;;;;;;;;;;;;;;;;5056395;28;19954;-69
2023/04/06 00:22:45;;;;;;;;;;;;;;;;;;5056355;28;20377;-68
2023/04/06 00:25:11;;;;;;;;;;;;;;;;;;5055120;28;19954;-69
2023/04/06 00:27:37;;;;;;;;;;;;;;;;;;5056241;28;20315;-69
2023/04/06 00:30:03;;;;;;;;;;;;;;;;;;5056440;28;20020;-69
2023/04/06 00:32:29;;;;;;;;;;;;;;;;;;5056365;28;20344;-68
2023/04/06 00:34:55;;;;;;;;;;;;;;;;;;5056157;28;20411;-69
2023/04/06 00:37:21;;;;;;;;;;;;;;;;;;5056613;28;19957;-70
2023/04/06 00:39:47;;;;;;;;;;;;;;;;;;5056028;28;19954;-70
2023/04/06 00:42:15;;;;;;;;;;;;;;;;;;5056547;28;20069;-69
2023/04/06 00:44:42;;;;;;;;;;;;;;;;;;5055932;28;19960;-69
2023/04/06 00:47:08;;;;;;;;;;;;;;;;;;5056224;28;19980;-69
2023/04/06 00:49:34;;;;;;;;;;;;;;;;;;5056139;28;20402;-70
2023/04/06 00:52:01;;;;;;;;;;;;;;;;;;5056293;28;20045;-69
2023/04/06 00:54:26;;;;;;;;;;;;;;;;;;5055756;28;19991;-69
2023/04/06 00:56:52;;;;;;;;;;;;;;;;;;5054255;28;19958;-70
2023/04/06 00:59:18;;;;;;;;;;;;;;;;;;5055726;28;19953;-69
2023/04/06 01:01:44;;;;;;;;;;;;;;;;;;5055611;28;20048;-69
2023/04/06 01:04:10;;;;;;;;;;;;;;;;;;5055840;28;20040;-70
2023/04/06 01:06:36;;;;;;;;;;;;;;;;;;5055861;28;19970;-69
2023/04/06 01:09:02;;;;;;;;;;;;;;;;;;5055517;28;19953;-68
2023/04/06 01:11:28;;;;;;;;;;;;;;;;;;5055450;28;19958;-70
2023/04/06 01:13:54;;;;;;;;;;;;;;;;;;5055328;28;19980;-70
2023/04/06 01:16:20;;;;;;;;;;;;;;;;;;5055614;28;20427;-69
2023/04/06 01:18:46;;;;;;;;;;;;;;;;;;5055561;28;19955;-69
2023/04/06 01:21:15;;;;;;;;;;;;;;;;;;5055048;28;19989;-69
2023/04/06 01:23:41;;;;;;;;;;;;;;;;;;5055514;28;20414;-70
2023/04/06 01:26:07;;;;;;;;;;;;;;;;;;5055177;28;20002;-70
2023/04/06 01:28:33;;;;;;;;;;;;;;;;;;5055393;28;19962;-70
2023/04/06 01:30:59;;;;;;;;;;;;;;;;;;5054993;28;19974;-68
2023/04/06 01:33:25;;;;;;;;;;;;;;;;;;5054953;28;20036;-68
2023/04/06 01:35:51;;;;;;;;;;;;;;;;;;5054718;28;20466;-69
2023/04/06 01:38:17;;;;;;;;;;;;;;;;;;5055212;28;19999;-69
2023/04/06 01:40:42;;;;;;;;;;;;;;;;;;5054872;28;20005;-68
2023/04/06 01:43:08;;;;;;;;;;;;;;;;;;5054747;28;19973;-69
2023/04/06 01:45:34;;;;;;;;;;;;;;;;;;5054806;28;19960;-70
2023/04/06 01:48:00;;;;;;;;;;;;;;;;;;5055018;28;20045;-69
2023/04/06 01:50:26;;;;;;;;;;;;;;;;;;5054690;28;19955;-68
2023/04/06 01:52:52;;;;;;;;;;;;;;;;;;5054888;28;19974;-68
2023/04/06 01:55:18;;;;;;;;;;;;;;;;;;5054665;28;20418;-70
2023/04/06 01:57:44;;;;;;;;;;;;;;;;;;5054828;28;19961;-69
2023/04/06 02:00:10;;;;;;;;;;;;;;;;;;5054760;28;19958;-68
2023/04/06 02:02:36;;;;;;;;;;;;;;;;;;5055028;28;19955;-68
2023/04/06 02:05:02;;;;;;;;;;;;;;;;;;5054688;28;19962;-70
2023/04/06 02:07:28;;;;;;;;;;;;;;;;;;5053072;28;20018;-68
2023/04/06 02:09:54;;;;;;;;;;;;;;;;;;5054860;28;20041;-69
2023/04/06 02:12:20;;;;;;;;;;;;;;;;;;5054244;28;19982;-70
2023/04/06 02:14:46;;;;;;;;;;;;;;;;;;5054293;28;20048;-69
2023/04/06 02:17:12;;;;;;;;;;;;;;;;;;5054228;28;19960;-70
2023/04/06 02:19:38;;;;;;;;;;;;;;;;;;5054187;28;19959;-71
2023/04/06 02:22:04;;;;;;;;;;;;;;;;;;5053941;28;20509;-70
2023/04/06 02:24:29;;;;;;;;;;;;;;;;;;5054669;28;19983;-69
2023/04/06 02:26:55;;;;;;;;;;;;;;;;;;5054059;28;19955;-70
2023/04/06 02:29:21;;;;;;;;;;;;;;;;;;5054249;28;19969;-68
2023/04/06 02:31:47;;;;;;;;;;;;;;;;;;5053992;28;19961;-68
2023/04/06 02:34:17;;;;;;;;;;;;;;;;;;5054146;28;19976;-68
2023/04/06 02:36:43;;;;;;;;;;;;;;;;;;5053869;28;20470;-70
2023/04/06 02:39:09;;;;;;;;;;;;;;;;;;5053878;28;19992;-69
2023/04/06 02:41:35;;;;;;;;;;;;;;;;;;5053824;28;20088;-70
2023/04/06 02:44:01;;;;;;;;;;;;;;;;;;5053802;28;20438;-69
2023/04/06 02:46:27;;;;;;;;;;;;;;;;;;5053787;28;19960;-68
2023/04/06 02:48:53;;;;;;;;;;;;;;;;;;5053673;28;19958;-69
2023/04/06 02:51:19;;;;;;;;;;;;;;;;;;5053704;28;20407;-69
2023/04/06 02:53:45;;;;;;;;;;;;;;;;;;5053641;28;20069;-69
2023/04/06 02:56:11;;;;;;;;;;;;;;;;;;5053703;28;19954;-69
2023/04/06 02:58:37;;;;;;;;;;;;;;;;;;5054172;28;20461;-69
2023/04/06 03:01:02;;;;;;;;;;;;;;;;;;5053876;28;19954;-69
2023/04/06 03:03:28;;;;;;;;;;;;;;;;;;5053773;28;19959;-70
2023/04/06 03:05:54;;;;;;;;;;;;;;;;;;5054096;28;19955;-70
2023/04/06 03:08:20;;;;;;;;;;;;;;;;;;5053536;28;20368;-69
2023/04/06 03:10:46;;;;;;;;;;;;;;;;;;5054049;28;19955;-71
2023/04/06 03:13:12;;;;;;;;;;;;;;;;;;5053696;28;19974;-70
2023/04/06 03:15:38;;;;;;;;;;;;;;;;;;5053456;28;19982;-68
2023/04/06 03:18:04;;;;;;;;;;;;;;;;;;5053999;28;20397;-70
2023/04/06 03:20:30;;;;;;;;;;;;;;;;;;5053231;28;19963;-69
2023/04/06 03:22:56;;;;;;;;;;;;;;;;;;5054000;28;20429;-68
2023/04/06 03:25:22;;;;;;;;;;;;;;;;;;5053356;28;19954;-69
2023/04/06 03:27:47;;;;;;;;;;;;;;;;;;5053917;28;19957;-69
2023/04/06 03:30:13;;;;;;;;;;;;;;;;;;5053264;28;19970;-68
2023/04/06 03:32:40;;;;;;;;;;;;;;;;;;5053821;28;20380;-70
2023/04/06 03:35:05;;;;;;;;;;;;;;;;;;5053602;28;19961;-68
2023/04/06 03:37:31;;;;;;;;;;;;;;;;;;5053309;28;20335;-70
2023/04/06 03:39:57;;;;;;;;;;;;;;;;;;5053264;28;19961;-69
2023/04/06 03:42:23;;;;;;;;;;;;;;;;;;5053485;28;19956;-70
2023/04/06 03:44:49;;;;;;;;;;;;;;;;;;5053471;28;20365;-70
2023/04/06 03:47:15;;;;;;;;;;;;;;;;;;5053451;28;20002;-69
2023/04/06 03:49:41;;;;;;;;;;;;;;;;;;5053139;28;19959;-69
2023/04/06 03:52:07;;;;;;;;;;;;;;;;;;5053042;28;19954;-69
2023/04/06 03:54:33;;;;;;;;;;;;;;;;;;5053387;28;19960;-69
2023/04/06 03:57:00;;;;;;;;;;;;;;;;;;5053118;28;19954;-69
2023/04/06 03:59:26;;;;;;;;;;;;;;;;;;5055006;28;20005;-72
2023/04/06 04:01:51;;;;;;;;;;;;;;;;;;5056780;28;19955;-70
2023/04/06 04:04:17;;;;;;;;;;;;;;;;;;5057025;28;19967;-70
2023/04/06 04:06:43;;;;;;;;;;;;;;;;;;5056934;28;19965;-69
2023/04/06 04:09:09;;;;;;;;;;;;;;;;;;5056647;28;19994;-70
2023/04/06 04:11:35;;;;;;;;;;;;;;;;;;5056577;28;19956;-71
2023/04/06 04:14:01;;;;;;;;;;;;;;;;;;5056505;28;20458;-70
2023/04/06 04:16:27;;;;;;;;;;;;;;;;;;5056573;28;19959;-70
2023/04/06 04:18:53;;;;;;;;;;;;;;;;;;5056498;28;19956;-70
2023/04/06 04:21:19;;;;;;;;;;;;;;;;;;5056254;28;19998;-69
2023/04/06 04:23:45;;;;;;;;;;;;;;;;;;5056372;28;19956;-70
2023/04/06 04:26:11;;;;;;;;;;;;;;;;;;5056317;28;19962;-70
2023/04/06 04:28:37;;;;;;;;;;;;;;;;;;5056445;28;19955;-69
2023/04/06 04:31:03;;;;;;;;;;;;;;;;;;5056269;28;20326;-69
2023/04/06 04:33:29;;;;;;;;;;;;;;;;;;5056662;28;20522;-69
2023/04/06 04:35:55;;;;;;;;;;;;;;;;;;5056439;28;19955;-69
2023/04/06 04:38:21;;;;;;;;;;;;;;;;;;5056109;28;19963;-69
2023/04/06 04:40:47;;;;;;;;;;;;;;;;;;5056124;28;20053;-70
2023/04/06 04:43:13;;;;;;;;;;;;;;;;;;5056314;28;19968;-69
2023/04/06 04:45:39;;;;;;;;;;;;;;;;;;5055951;28;19955;-69
2023/04/06 04:48:05;;;;;;;;;;;;;;;;;;5056181;28;20045;-69
2023/04/06 04:50:31;;;;;;;;;;;;;;;;;;5054607;28;19966;-69
2023/04/06 04:52:57;;;;;;;;;;;;;;;;;;5056011;28;20331;-68
2023/04/06 04:55:22;;;;;;;;;;;;;;;;;;5056027;28;19960;-70
2023/04/06 04:57:48;;;;;;;;;;;;;;;;;;5055745;28;19997;-69
2023/04/06 05:00:14;;;;;;;;;;;;;;;;;;5055738;28;20051;-70
2023/04/06 05:02:40;;;;;;;;;;;;;;;;;;5055671;28;19961;-69
2023/04/06 05:05:06;;;;;;;;;;;;;;;;;;5056186;28;19956;-70
2023/04/06 05:07:32;;;;;;;;;;;;;;;;;;5055469;28;20432;-69
2023/04/06 05:09:58;;;;;;;;;;;;;;;;;;5055951;28;19964;-70
2023/04/06 05:12:24;;;;;;;;;;;;;;;;;;5054925;28;19974;-70
2023/04/06 05:14:50;;;;;;;;;;;;;;;;;;5055464;28;19955;-70
2023/04/06 05:17:16;;;;;;;;;;;;;;;;;;5055641;28;20002;-69
2023/04/06 05:19:42;;;;;;;;;;;;;;;;;;5055376;28;19954;-70
2023/04/06 05:22:08;;;;;;;;;;;;;;;;;;5055012;28;19994;-69
2023/04/06 05:24:35;;;;;;;;;;;;;;;;;;5055559;28;19959;-70
2023/04/06 05:27:00;;;;;;;;;;;;;;;;;;5055489;28;19960;-70
2023/04/06 05:29:26;;;;;;;;;;;;;;;;;;5055423;28;20019;-70
2023/04/06 05:31:52;;;;;;;;;;;;;;;;;;5055068;28;19955;-69
2023/04/06 05:34:19;;;;;;;;;;;;;;;;;;5055279;28;19979;-68
2023/04/06 05:36:45;;;;;;;;;;;;;;;;;;5055327;28;19956;-69
2023/04/06 05:39:12;;;;;;;;;;;;;;;;;;5054965;28;20005;-70
2023/04/06 05:41:38;;;;;;;;;;;;;;;;;;5055443;28;19958;-69
2023/04/06 05:44:04;;;;;;;;;;;;;;;;;;5054752;28;19993;-69
2023/04/06 05:46:30;;;;;;;;;;;;;;;;;;5054744;28;19990;-70
2023/04/06 05:48:56;;;;;;;;;;;;;;;;;;5055311;28;19994;-70
2023/04/06 05:51:22;;;;;;;;;;;;;;;;;;5054735;28;20025;-69
2023/04/06 05:53:48;;;;;;;;;;;;;;;;;;5054858;28;19978;-69
2023/04/06 05:56:13;;;;;;;;;;;;;;;;;;5055153;28;19993;-68
2023/04/06 05:58:39;;;;;;;;;;;;;;;;;;5054546;28;20080;-70
2023/04/06 06:01:05;;;;;;;;;;;;;;;;;;5054519;28;20003;-69
2023/04/06 06:03:31;;;;;;;;;;;;;;;;;;5054399;28;20383;-70
2023/04/06 06:05:57;;;;;;;;;;;;;;;;;;5053163;28;19961;-69
2023/04/06 06:08:23;;;;;;;;;;;;;;;;;;5054700;28;20000;-68
2023/04/06 06:10:49;;;;;;;;;;;;;;;;;;5054590;28;19953;-70
2023/04/06 06:13:15;;;;;;;;;;;;;;;;;;5054247;28;19974;-69
2023/04/06 06:15:41;;;;;;;;;;;;;;;;;;5054514;28;20343;-70
2023/04/06 06:18:07;;;;;;;;;;;;;;;;;;5054756;28;19981;-69
2023/04/06 06:20:32;;;;;;;;;;;;;;;;;;5054275;28;19955;-69
2023/04/06 06:22:58;;;;;;;;;;;;;;;;;;5053556;28;20315;-68
2023/04/06 06:25:24;;;;;;;;;;;;;;;;;;5054070;28;19961;-69
2023/04/06 06:27:50;;;;;;;;;;;;;;;;;;5054031;28;20104;-69
2023/04/06 06:30:16;;;;;;;;;;;;;;;;;;5054499;28;20434;-69
2023/04/06 06:32:42;;;;;;;;;;;;;;;;;;5053936;28;20061;-69
2023/04/06 06:35:08;;;;;;;;;;;;;;;;;;5053948;28;20009;-68
2023/04/06 06:37:34;;;;;;;;;;;;;;;;;;5054199;28;19993;-70
2023/04/06 06:40:00;;;;;;;;;;;;;;;;;;5053884;28;20484;-70
2023/04/06 06:42:26;;;;;;;;;;;;;;;;;;5053845;28;19954;-70
2023/04/06 06:44:52;;;;;;;;;;;;;;;;;;5054066;28;20305;-70
2023/04/06 06:47:18;;;;;;;;;;;;;;;;;;5053734;28;19962;-70
2023/04/06 06:49:44;;;;;;;;;;;;;;;;;;5054030;28;19954;-70
2023/04/06 06:52:10;;;;;;;;;;;;;;;;;;5053624;28;20036;-70
2023/04/06 06:54:35;;;;;;;;;;;;;;;;;;5053997;28;20064;-69
2023/04/06 06:57:01;;;;;;;;;;;;;;;;;;5053881;28;19959;-71
2023/04/06 06:59:27;;;;;;;;;;;;;;;;;;5053633;28;20003;-71
2023/04/06 07:01:53;;;;;;;;;;;;;;;;;;5053627;28;20455;-69
2023/04/06 07:04:19;;;;;;;;;;;;;;;;;;5054152;28;19954;-69
2023/04/06 07:06:45;;;;;;;;;;;;;;;;;;5053839;28;19954;-69
2023/04/06 07:09:11;;;;;;;;;;;;;;;;;;5054127;28;19961;-69
2023/04/06 07:11:37;;;;;;;;;;;;;;;;;;5053406;28;20386;-70
2023/04/06 07:14:03;;;;;;;;;;;;;;;;;;5052670;28;19978;-71
2023/04/06 07:16:29;;;;;;;;;;;;;;;;;;5045198;28;20015;-70
2023/04/06 07:18:55;;;;;;;;;;;;;;;;;;5041440;28;20419;-69
2023/04/06 07:21:21;;;;;;;;;;;;;;;;;;5033465;28;19994;-71
2023/04/06 07:23:48;;;;;;;;;;;;;;;;;;5033499;28;19963;-72
2023/04/06 07:26:13;;;;;;;;;;;;;;;;;;5036419;28;20061;-72
2023/04/06 07:28:40;;;;;;;;;;;;;;;;;;5050172;28;19993;-67
2023/04/06 07:31:06;;;;;;;;;;;;;;;;;;5053889;28;19954;-68
2023/04/06 07:33:32;;;;;;;;;;;;;;;;;;5048344;28;20451;-68
2023/04/06 07:35:58;;;;;;;;;;;;;;;;;;5050245;28;19966;-67
2023/04/06 07:38:24;;;;;;;;;;;;;;;;;;5053332;28;19957;-71
2023/04/06 07:40:50;;;;;;;;;;;;;;;;;;5038087;28;20435;-68
2023/04/06 07:43:16;;;;;;;;;;;;;;;;;;5037452;28;19954;-68
2023/04/06 07:45:42;;;;;;;;;;;;;;;;;;5047117;28;19962;-68
2023/04/06 07:48:08;;;;;;;;;;;;;;;;;;5039272;28;19967;-68
2023/04/06 07:50:34;;;;;;;;;;;;;;;;;;5037147;28;19955;-68
2023/04/06 07:53:00;;;;;;;;;;;;;;;;;;5036971;28;20015;-69
2023/04/06 07:55:26;;;;;;;;;;;;;;;;;;5062087;28;19962;-68
2023/04/06 07:57:52;;;;;;;;;;;;;;;;;;5049406;28;19963;-67
2023/04/06 08:00:18;;;;;;;;;;;;;;;;;;5040262;28;20011;-70
2023/04/06 08:02:44;;;;;;;;;;;;;;;;;;5037535;28;20013;-72
2023/04/06 08:05:10;;;;;;;;;;;;;;;;;;5043780;28;19961;-67
2023/04/06 08:07:36;;;;;;;;;;;;;;;;;;5036774;28;20485;-69
2023/04/06 08:10:02;;;;;;;;;;;;;;;;;;5036716;28;19956;-67
2023/04/06 08:12:28;;;;;;;;;;;;;;;;;;5036610;28;20094;-68
2023/04/06 08:14:54;;;;;;;;;;;;;;;;;;5039404;28;19965;-69
2023/04/06 08:17:20;;;;;;;;;;;;;;;;;;5037220;28;19957;-68
2023/04/06 08:19:46;;;;;;;;;;;;;;;;;;5049146;28;20037;-67
2023/04/06 08:22:12;;;;;;;;;;;;;;;;;;5039152;28;19994;-71
2023/04/06 08:24:37;;;;;;;;;;;;;;;;;;5036448;28;20447;-66
2023/04/06 08:27:03;;;;;;;;;;;;;;;;;;5036434;28;19954;-68
2023/04/06 08:29:29;;;;;;;;;;;;;;;;;;5036634;28;19973;-67
2023/04/06 08:31:55;;;;;;;;;;;;;;;;;;5036229;28;19962;-67
2023/04/06 08:34:22;;;;;;;;;;;;;;;;;;5036217;28;19981;-69
2023/04/06 08:36:48;;;;;;;;;;;;;;;;;;5036221;28;19959;-68
2023/04/06 08:39:14;;;;;;;;;;;;;;;;;;5036758;28;20427;-66
2023/04/06 08:41:40;;;;;;;;;;;;;;;;;;5053820;28;20057;-67
2023/04/06 08:44:06;;;;;;;;;;;;;;;;;;5055475;28;20013;-66
2023/04/06 08:46:32;;;;;;;;;;;;;;;;;;5052223;28;19980;-66
2023/04/06 08:48:58;;;;;;;;;;;;;;;;;;5044319;28;19967;-67
2023/04/06 08:51:25;;;;;;;;;;;;;;;;;;5054602;28;19964;-66
2023/04/06 08:53:54;;;;;;;;;;;;;;;;;;5054841;28;20350;-71
2023/04/06 08:56:20;;;;;;;;;;;;;;;;;;5050862;28;19958;-68
2023/04/06 08:58:46;;;;;;;;;;;;;;;;;;5035962;28;19952;-69
2023/04/06 09:01:12;;;;;;;;;;;;;;;;;;5036093;28;19962;-69
2023/04/06 09:03:39;;;;;;;;;;;;;;;;;;5039313;28;20443;-67
2023/04/06 09:06:05;;;;;;;;;;;;;;;;;;5049843;28;19962;-67
2023/04/06 09:08:31;;;;;;;;;;;;;;;;;;5055899;28;19982;-66
2023/04/06 09:10:57;;;;;;;;;;;;;;;;;;5055549;28;19961;-69
2023/04/06 09:13:23;;;;;;;;;;;;;;;;;;5054008;28;20013;-67
2023/04/06 09:15:49;;;;;;;;;;;;;;;;;;5054699;28;20053;-67
2023/04/06 09:18:14;;;;;;;;;;;;;;;;;;5053155;28;20003;-69
2023/04/06 09:20:40;;;;;;;;;;;;;;;;;;5039984;28;19992;-68
2023/04/06 09:23:06;;;;;;;;;;;;;;;;;;5034876;28;19953;-68
2023/04/06 09:25:32;;;;;;;;;;;;;;;;;;5034859;28;19952;-73
2023/04/06 09:27:59;;;;;;;;;;;;;;;;;;5034870;28;19958;-68
2023/04/06 09:30:24;;;;;;;;;;;;;;;;;;5035212;28;20076;-68
2023/04/06 09:32:50;;;;;;;;;;;;;;;;;;5039248;28;20527;-68
2023/04/06 09:35:16;;;;;;;;;;;;;;;;;;5035402;28;19960;-67
2023/04/06 09:37:42;;;;;;;;;;;;;;;;;;5035188;28;19955;-69
2023/04/06 09:40:08;;;;;;;;;;;;;;;;;;5035166;28;19956;-69
2023/04/06 09:42:34;;;;;;;;;;;;;;;;;;5035027;28;19974;-69
2023/04/06 09:45:00;;;;;;;;;;;;;;;;;;5035485;28;19952;-70
2023/04/06 09:47:26;;;;;;;;;;;;;;;;;;5048853;28;20420;-68
2023/04/06 09:49:52;;;;;;;;;;;;;;;;;;5054791;28;20002;-67
2023/04/06 09:52:18;;;;;;;;;;;;;;;;;;5053991;28;19952;-72
2023/04/06 09:54:44;;;;;;;;;;;;;;;;;;5043453;28;19954;-69
2023/04/06 09:57:10;;;;;;;;;;;;;;;;;;5054467;28;20079;-71
2023/04/06 09:59:36;;;;;;;;;;;;;;;;;;5036337;28;19957;-71
2023/04/06 10:02:02;;;;;;;;;;;;;;;;;;5034626;28;19955;-67
2023/04/06 10:04:28;;;;;;;;;;;;;;;;;;5041734;28;19956;-70
2023/04/06 10:06:55;;;;;;;;;;;;;;;;;;5053393;28;19967;-71
2023/04/06 10:09:21;;;;;;;;;;;;;;;;;;5050695;28;19968;-70
2023/04/06 10:11:47;;;;;;;;;;;;;;;;;;5043015;28;19957;-70
2023/04/06 10:14:13;;;;;;;;;;;;;;;;;;5048625;28;19975;-69
2023/04/06 10:16:39;;;;;;;;;;;;;;;;;;5054431;28;20367;-69
2023/04/06 10:19:05;;;;;;;;;;;;;;;;;;5052924;28;19998;-69
2023/04/06 10:21:31;;;;;;;;;;;;;;;;;;5053890;28;19990;-69
2023/04/06 10:23:57;;;;;;;;;;;;;;;;;;5054490;28;19952;-70
2023/04/06 10:26:26;;;;;;;;;;;;;;;;;;5053516;28;20445;-67
2023/04/06 10:28:52;;;;;;;;;;;;;;;;;;5049495;28;19985;-70
2023/04/06 10:31:18;;;;;;;;;;;;;;;;;;5044920;28;20000;-70
2023/04/06 10:33:44;;;;;;;;;;;;;;;;;;5048204;28;20029;-68
2023/04/06 10:36:10;;;;;;;;;;;;;;;;;;5054191;28;20363;-70
2023/04/06 10:38:36;;;;;;;;;;;;;;;;;;5053870;28;20051;-69
2023/04/06 10:41:02;;;;;;;;;;;;;;;;;;5053875;28;20458;-68
2023/04/06 10:43:28;;;;;;;;;;;;;;;;;;5054393;28;20582;-69
2023/04/06 10:45:54;;;;;;;;;;;;;;;;;;5054021;28;20052;-69
2023/04/06 10:48:20;;;;;;;;;;;;;;;;;;5054294;28;19957;-68
2023/04/06 10:50:46;;;;;;;;;;;;;;;;;;5053730;28;19959;-69
2023/04/06 10:53:12;;;;;;;;;;;;;;;;;;5053659;28;19971;-69
2023/04/06 10:55:38;;;;;;;;;;;;;;;;;;5054245;28;19955;-69
2023/04/06 10:58:03;;;;;;;;;;;;;;;;;;5053667;28;19955;-68
2023/04/06 11:00:30;;;;;;;;;;;;;;;;;;5053617;28;19954;-68
2023/04/06 11:02:55;;;;;;;;;;;;;;;;;;5054161;28;19954;-69
2023/04/06 11:05:21;;;;;;;;;;;;;;;;;;5053598;28;20299;-69
2023/04/06 11:07:47;;;;;;;;;;;;;;;;;;5053580;28;19955;-69
2023/04/06 11:10:13;;;;;;;;;;;;;;;;;;5053593;28;20048;-69
2023/04/06 11:12:39;;;;;;;;;;;;;;;;;;5053713;28;19974;-69
2023/04/06 11:15:05;;;;;;;;;;;;;;;;;;5053518;28;20467;-69
2023/04/06 11:17:31;;;;;;;;;;;;;;;;;;5053766;28;19952;-70
2023/04/06 11:19:57;;;;;;;;;;;;;;;;;;5053440;28;20005;-69
2023/04/06 11:22:23;;;;;;;;;;;;;;;;;;5053095;28;19990;-69
2023/04/06 11:24:49;;;;;;;;;;;;;;;;;;5054004;28;20415;-68
2023/04/06 11:27:18;;;;;;;;;;;;;;;;;;5053655;28;19955;-69
2023/04/06 11:29:45;;;;;;;;;;;;;;;;;;5053273;28;20012;-69
2023/04/06 11:32:12;;;;;;;;;;;;;;;;;;5053332;28;19953;-69
2023/04/06 11:34:38;;;;;;;;;;;;;;;;;;5053789;28;19977;-69
2023/04/06 11:37:07;;;;;;;;;;;;;;;;;;5053329;28;19955;-69
2023/04/06 11:39:33;;;;;;;;;;;;;;;;;;5053865;28;20361;-69
2023/04/06 11:41:59;;;;;;;;;;;;;;;;;;5053249;28;19959;-70
2023/04/06 11:44:25;;;;;;;;;;;;;;;;;;5053215;28;19990;-68
2023/04/06 11:46:51;;;;;;;;;;;;;;;;;;5053749;28;19970;-69
2023/04/06 11:49:17;;;;;;;;;;;;;;;;;;5053175;28;19998;-69
2023/04/06 11:51:43;;;;;;;;;;;;;;;;;;5053175;28;20506;-68
2023/04/06 11:54:09;;;;;;;;;;;;;;;;;;5053016;28;19978;-70
2023/04/06 11:56:35;;;;;;;;;;;;;;;;;;5053355;28;20428;-69
2023/04/06 11:59:01;;;;;;;;;;;;;;;;;;5053335;28;19955;-69
2023/04/06 12:01:27;;;;;;;;;;;;;;;;;;5053081;28;19960;-69
2023/04/06 12:03:52;;;;;;;;;;;;;;;;;;5053035;28;19954;-69
2023/04/06 12:06:18;;;;;;;;;;;;;;;;;;5053296;28;19981;-69
2023/04/06 12:08:44;;;;;;;;;;;;;;;;;;5052942;28;19953;-68
2023/04/06 12:11:10;;;;;;;;;;;;;;;;;;5053476;28;19954;-69
2023/04/06 12:13:36;;;;;;;;;;;;;;;;;;5052866;28;19981;-69
2023/04/06 12:16:02;;;;;;;;;;;;;;;;;;5049367;28;20018;-68
2023/04/06 12:18:28;;;;;;;;;;;;;;;;;;5045833;28;20021;-70
2023/04/06 12:20:54;;;;;;;;;;;;;;;;;;5045783;28;20459;-70
2023/04/06 12:23:20;;;;;;;;;;;;;;;;;;5042030;28;20380;-71
2023/04/06 12:25:46;;;;;;;;;;;;;;;;;;5039299;28;19966;-70
2023/04/06 12:28:12;;;;;;;;;;;;;;;;;;5036477;28;20482;-68
2023/04/06 12:30:38;;;;;;;;;;;;;;;;;;5044068;28;19980;-70
2023/04/06 12:33:04;;;;;;;;;;;;;;;;;;5036273;28;19981;-70
2023/04/06 12:35:30;;;;;;;;;;;;;;;;;;5047017;28;19960;-70
2023/04/06 12:37:56;;;;;;;;;;;;;;;;;;5042446;28;19970;-69
2023/04/06 12:40:22;;;;;;;;;;;;;;;;;;5039099;28;19963;-68
2023/04/06 12:42:47;;;;;;;;;;;;;;;;;;5039180;28;19966;-68
2023/04/06 12:45:13;;;;;;;;;;;;;;;;;;5046442;28;19961;-69
2023/04/06 12:47:39;;;;;;;;;;;;;;;;;;5042371;28;20045;-68
2023/04/06 12:50:05;;;;;;;;;;;;;;;;;;5042434;28;20011;-68
2023/04/06 12:52:34;;;;;;;;;;;;;;;;;;5053126;28;19964;-69
2023/04/06 12:55:00;;;;;;;;;;;;;;;;;;5045146;28;20021;-68
2023/04/06 12:57:26;;;;;;;;;;;;;;;;;;5047310;28;20423;-67
2023/04/06 12:59:52;;;;;;;;;;;;;;;;;;5035970;28;19959;-68
2023/04/06 13:02:20;;;;;;;;;;;;;;;;;;5035923;28;20078;-67
2023/04/06 13:04:46;;;;;;;;;;;;;;;;;;5036117;28;19970;-67
2023/04/06 13:07:12;;;;;;;;;;;;;;;;;;5036017;28;20319;-69
2023/04/06 13:09:38;;;;;;;;;;;;;;;;;;5035722;28;19963;-67
2023/04/06 13:12:05;;;;;;;;;;;;;;;;;;5036198;28;19963;-68
2023/04/06 13:14:31;;;;;;;;;;;;;;;;;;5035362;28;19982;-68
2023/04/06 13:16:57;;;;;;;;;;;;;;;;;;5034299;28;19958;-69
2023/04/06 13:19:23;;;;;;;;;;;;;;;;;;5035493;28;19960;-68
2023/04/06 13:21:49;;;;;;;;;;;;;;;;;;5035209;28;19995;-67
2023/04/06 13:24:15;;;;;;;;;;;;;;;;;;5035420;28;19955;-68
2023/04/06 13:26:41;;;;;;;;;;;;;;;;;;5035276;28;20376;-67
2023/04/06 13:29:07;;;;;;;;;;;;;;;;;;5035676;28;19979;-68
2023/04/06 13:31:33;;;;;;;;;;;;;;;;;;5034705;28;19987;-68
2023/04/06 13:33:58;;;;;;;;;;;;;;;;;;5035472;28;20035;-68
2023/04/06 13:36:24;;;;;;;;;;;;;;;;;;5035109;28;19960;-68
2023/04/06 13:38:50;;;;;;;;;;;;;;;;;;5034764;28;19968;-68
2023/04/06 13:41:16;;;;;;;;;;;;;;;;;;5038641;28;19959;-72
2023/04/06 13:43:42;;;;;;;;;;;;;;;;;;5041274;28;19986;-67
2023/04/06 13:46:08;;;;;;;;;;;;;;;;;;5034995;28;19959;-71
2023/04/06 13:48:34;;;;;;;;;;;;;;;;;;5035219;28;19959;-71
2023/04/06 13:51:00;;;;;;;;;;;;;;;;;;5034900;28;20442;-69
2023/04/06 13:53:26;;;;;;;;;;;;;;;;;;5053246;28;19978;-69
2023/04/06 13:55:52;;;;;;;;;;;;;;;;;;5053531;28;19963;-71
2023/04/06 13:58:17;;;;;;;;;;;;;;;;;;5054661;28;19953;-71
2023/04/06 14:00:43;;;;;;;;;;;;;;;;;;5036720;28;20016;-68
2023/04/06 14:03:09;;;;;;;;;;;;;;;;;;5034860;28;19974;-69
2023/04/06 14:05:35;;;;;;;;;;;;;;;;;;5034628;28;19991;-69
2023/04/06 14:08:01;;;;;;;;;;;;;;;;;;5034608;28;20005;-69
2023/04/06 14:10:27;;;;;;;;;;;;;;;;;;5048533;28;19966;-69
2023/04/06 14:12:53;;;;;;;;;;;;;;;;;;5054336;28;20349;-68
2023/04/06 14:15:21;;;;;;;;;;;;;;;;;;5047962;28;20053;-71
2023/04/06 14:17:47;;;;;;;;;;;;;;;;;;5051381;28;20005;-71
2023/04/06 14:20:15;;;;;;;;;;;;;;;;;;5054212;28;20001;-71
2023/04/06 14:22:41;;;;;;;;;;;;;;;;;;5053743;28;20082;-71
2023/04/06 14:25:07;;;;;;;;;;;;;;;;;;5053783;28;20333;-70
2023/04/06 14:27:33;;;;;;;;;;;;;;;;;;5054385;28;19956;-70
2023/04/06 14:29:59;;;;;;;;;;;;;;;;;;5054019;28;19981;-71
2023/04/06 14:32:26;;;;;;;;;;;;;;;;;;5054272;28;19954;-71
2023/04/06 14:34:52;;;;;;;;;;;;;;;;;;5054019;28;19955;-70
2023/04/06 14:37:18;;;;;;;;;;;;;;;;;;5054015;28;19956;-69
2023/04/06 14:39:44;;;;;;;;;;;;;;;;;;5054504;28;19959;-71
2023/04/06 14:42:10;;;;;;;;;;;;;;;;;;5053922;28;20064;-70
2023/04/06 14:44:36;;;;;;;;;;;;;;;;;;5053082;28;20466;-70
2023/04/06 14:47:03;;;;;;;;;;;;;;;;;;5054081;28;20378;-70
2023/04/06 14:49:29;;;;;;;;;;;;;;;;;;5053769;28;19960;-70
2023/04/06 14:51:55;;;;;;;;;;;;;;;;;;5054049;28;19979;-71
2023/04/06 14:54:21;;;;;;;;;;;;;;;;;;5053635;28;20062;-69
2023/04/06 14:56:47;;;;;;;;;;;;;;;;;;5053706;28;20449;-71
2023/04/06 14:59:13;;;;;;;;;;;;;;;;;;5053954;28;19961;-70
2023/04/06 15:01:39;;;;;;;;;;;;;;;;;;5053626;28;20447;-71
2023/04/06 15:04:05;;;;;;;;;;;;;;;;;;5053640;28;20015;-69
2023/04/06 15:06:31;;;;;;;;;;;;;;;;;;5053905;28;19956;-70
2023/04/06 15:08:57;;;;;;;;;;;;;;;;;;5053847;28;20372;-70
2023/04/06 15:11:23;;;;;;;;;;;;;;;;;;5053558;28;19955;-70
2023/04/06 15:13:49;;;;;;;;;;;;;;;;;;5053442;28;20030;-71
2023/04/06 15:16:15;;;;;;;;;;;;;;;;;;5053558;28;19955;-70
2023/04/06 15:18:41;;;;;;;;;;;;;;;;;;5053765;28;19959;-70
2023/04/06 15:21:07;;;;;;;;;;;;;;;;;;5053380;28;20040;-71
2023/04/06 15:23:34;;;;;;;;;;;;;;;;;;5053489;28;19955;-71
2023/04/06 15:26:00;;;;;;;;;;;;;;;;;;5053958;28;20020;-72
2023/04/06 15:28:26;;;;;;;;;;;;;;;;;;5053411;28;20412;-69
2023/04/06 15:30:52;;;;;;;;;;;;;;;;;;5053301;28;19971;-71
2023/04/06 15:33:17;;;;;;;;;;;;;;;;;;5053532;28;19980;-71
2023/04/06 15:35:43;;;;;;;;;;;;;;;;;;5053901;28;19955;-69
2023/04/06 15:38:09;;;;;;;;;;;;;;;;;;5053300;28;19962;-70
2023/04/06 15:40:36;;;;;;;;;;;;;;;;;;5053547;28;19963;-70
2023/04/06 15:43:01;;;;;;;;;;;;;;;;;;5053259;28;19954;-69
2023/04/06 15:45:28;;;;;;;;;;;;;;;;;;5053221;28;20008;-69
2023/04/06 15:47:54;;;;;;;;;;;;;;;;;;5053281;28;19967;-70
2023/04/06 15:50:20;;;;;;;;;;;;;;;;;;5053530;28;19956;-71
2023/04/06 15:52:46;;;;;;;;;;;;;;;;;;5053109;28;20033;-70
2023/04/06 15:55:12;;;;;;;;;;;;;;;;;;5054493;28;20327;-70
2023/04/06 15:57:38;;;;;;;;;;;;;;;;;;5057010;28;19994;-71
2023/04/06 16:00:04;;;;;;;;;;;;;;;;;;5057194;28;20017;-69
2023/04/06 16:02:30;;;;;;;;;;;;;;;;;;5057148;28;20411;-71
2023/04/06 16:04:56;;;;;;;;;;;;;;;;;;5056841;28;20037;-71
2023/04/06 16:07:22;;;;;;;;;;;;;;;;;;5057049;28;19985;-70
2023/04/06 16:09:49;;;;;;;;;;;;;;;;;;5056716;28;19955;-69
2023/04/06 16:12:15;;;;;;;;;;;;;;;;;;5056957;28;19956;-71
2023/04/06 16:14:41;;;;;;;;;;;;;;;;;;5055295;28;20027;-70
2023/04/06 16:17:06;;;;;;;;;;;;;;;;;;5056598;28;20326;-71
2023/04/06 16:19:32;;;;;;;;;;;;;;;;;;5056545;28;19955;-71
2023/04/06 16:21:58;;;;;;;;;;;;;;;;;;5056381;28;20445;-70
2023/04/06 16:24:24;;;;;;;;;;;;;;;;;;5056456;28;19955;-71
2023/04/06 16:26:51;;;;;;;;;;;;;;;;;;5056433;28;20473;-69
2023/04/06 16:29:17;;;;;;;;;;;;;;;;;;5056720;28;20442;-71
2023/04/06 16:31:45;;;;;;;;;;;;;;;;;;5056595;28;19959;-69
2023/04/06 16:34:11;;;;;;;;;;;;;;;;;;5056222;28;19978;-69
2023/04/06 16:36:39;;;;;;;;;;;;;;;;;;5056211;28;20073;-69